sensor_id;sensor_type;location;lat;lon;timestamp;pressure;altitude;pressure_sealevel;temperature;humidity
37238;BME280;23129;49.662;8.448;2023-11-18T00:00:33;101639.34;;;6.98;100.00
37238;BME280;23129;49.662;8.448;2023-11-18T00:03:02;101638.47;;;6.96;100.00
37238;BME280;23129;49.662;8.448;2023-11-18T00:05:32;101637.56;;;6.94;100.00
37238;BME280;23129;49.662;8.448;2023-11-18T00:08:01;101635.84;;;6.91;100.00
37238;BME280;23129;49.662;8.448;2023-11-18T00:10:30;101650.59;;;6.89;100.00
37238;BME280;23129;49.662;8.448;2023-11-18T00:12:59;101647.97;;;6.86;100.00
37238;BME280;23129;49.662;8.448;2023-11-18T00:15:29;101656.63;;;6.82;100.00
37238;BME280;23129;49.662;8.448;2023-11-18T00:17:56;101645.31;;;6.77;100.00
37238;BME280;23129;49.662;8.448;2023-11-18T00:20:25;101641.78;;;6.70;100.00
37238;BME280;23129;49.662;8.448;2023-11-18T00:22:55;101647.84;;;6.69;100.00
37238;BME280;23129;49.662;8.448;2023-11-18T00:25:23;101642.63;;;6.65;100.00
37238;BME280;23129;49.662;8.448;2023-11-18T00:27:52;101638.25;;;6.62;100.00
37238;BME280;23129;49.662;8.448;2023-11-18T00:30:22;101640.78;;;6.57;100.00
37238;BME280;23129;49.662;8.448;2023-11-18T00:32:50;101638.16;;;6.53;100.00
37238;BME280;23129;49.662;8.448;2023-11-18T00:35:20;101634.66;;;6.51;100.00
37238;BME280;23129;49.662;8.448;2023-11-18T00:37:48;101639.84;;;6.48;100.00
37238;BME280;23129;49.662;8.448;2023-11-18T00:40:18;101645.03;;;6.45;100.00
37238;BME280;23129;49.662;8.448;2023-11-18T00:42:47;101648.50;;;6.40;100.00
37238;BME280;23129;49.662;8.448;2023-11-18T00:45:15;101640.66;;;6.39;100.00
37238;BME280;23129;49.662;8.448;2023-11-18T00:47:45;101643.22;;;6.36;100.00
37238;BME280;23129;49.662;8.448;2023-11-18T00:50:14;101644.06;;;6.33;100.00
37238;BME280;23129;49.662;8.448;2023-11-18T00:52:44;101641.44;;;6.30;100.00
37238;BME280;23129;49.662;8.448;2023-11-18T00:55:17;101634.50;;;6.29;100.00
37238;BME280;23129;49.662;8.448;2023-11-18T00:57:46;101643.16;;;6.27;100.00
37238;BME280;23129;49.662;8.448;2023-11-18T01:00:15;101644.00;;;6.24;100.00
37238;BME280;23129;49.662;8.448;2023-11-18T01:02:49;101645.69;;;6.21;100.00
37238;BME280;23129;49.662;8.448;2023-11-18T01:05:18;101654.34;;;6.18;100.00
37238;BME280;23129;49.662;8.448;2023-11-18T01:07:47;101660.44;;;6.17;100.00
37238;BME280;23129;49.662;8.448;2023-11-18T01:10:18;101663.84;;;6.13;100.00
37238;BME280;23129;49.662;8.448;2023-11-18T01:12:47;101662.09;;;6.12;100.00
37238;BME280;23129;49.662;8.448;2023-11-18T01:15:16;101663.81;;;6.10;100.00
37238;BME280;23129;49.662;8.448;2023-11-18T01:17:44;101665.56;;;6.08;100.00
37238;BME280;23129;49.662;8.448;2023-11-18T01:20:13;101660.31;;;6.05;100.00
37238;BME280;23129;49.662;8.448;2023-11-18T01:22:49;101660.25;;;5.99;100.00
37238;BME280;23129;49.662;8.448;2023-11-18T01:25:19;101654.09;;;5.95;100.00
37238;BME280;23129;49.662;8.448;2023-11-18T01:27:49;101656.66;;;5.92;100.00
37238;BME280;23129;49.662;8.448;2023-11-18T01:30:17;101654.88;;;5.86;100.00
37238;BME280;23129;49.662;8.448;2023-11-18T01:32:46;101654.81;;;5.83;100.00
37238;BME280;23129;49.662;8.448;2023-11-18T01:35:16;101660.00;;;5.80;100.00
37238;BME280;23129;49.662;8.448;2023-11-18T01:37:45;101663.47;;;5.79;100.00
37238;BME280;23129;49.662;8.448;2023-11-18T01:40:18;101667.75;;;5.76;100.00
37238;BME280;23129;49.662;8.448;2023-11-18T01:42:47;101663.38;;;5.73;100.00
37238;BME280;23129;49.662;8.448;2023-11-18T01:45:15;101649.44;;;5.68;100.00
37238;BME280;23129;49.662;8.448;2023-11-18T01:47:45;101661.59;;;5.66;100.00
37238;BME280;23129;49.662;8.448;2023-11-18T01:50:17;101660.66;;;5.62;100.00
37238;BME280;23129;49.662;8.448;2023-11-18T01:52:46;101660.59;;;5.59;100.00
37238;BME280;23129;49.662;8.448;2023-11-18T01:55:17;101654.50;;;5.56;100.00
37238;BME280;23129;49.662;8.448;2023-11-18T01:57:46;101655.31;;;5.52;100.00
37238;BME280;23129;49.662;8.448;2023-11-18T02:00:15;101656.16;;;5.47;100.00
37238;BME280;23129;49.662;8.448;2023-11-18T02:02:46;101665.63;;;5.44;100.00
37238;BME280;23129;49.662;8.448;2023-11-18T02:05:15;101663.84;;;5.41;100.00
37238;BME280;23129;49.662;8.448;2023-11-18T02:07:45;101671.63;;;5.38;100.00
37238;BME280;23129;49.662;8.448;2023-11-18T02:10:15;101663.81;;;5.37;100.00
37238;BME280;23129;49.662;8.448;2023-11-18T02:12:53;101669.84;;;5.33;100.00
37238;BME280;23129;49.662;8.448;2023-11-18T02:15:24;101681.94;;;5.31;100.00
37238;BME280;23129;49.662;8.448;2023-11-18T02:17:54;101679.25;;;5.26;100.00
37238;BME280;23129;49.662;8.448;2023-11-18T02:20:24;101680.09;;;5.22;100.00
37238;BME280;23129;49.662;8.448;2023-11-18T02:22:54;101678.31;;;5.18;100.00
37238;BME280;23129;49.662;8.448;2023-11-18T02:25:24;101681.69;;;5.14;100.00
37238;BME280;23129;49.662;8.448;2023-11-18T02:27:58;101682.47;;;5.08;100.00
37238;BME280;23129;49.662;8.448;2023-11-18T02:30:27;101685.88;;;5.04;100.00
37238;BME280;23129;49.662;8.448;2023-11-18T02:33:01;101682.38;;;5.00;100.00
37238;BME280;23129;49.662;8.448;2023-11-18T02:35:36;101679.72;;;4.97;100.00
37238;BME280;23129;49.662;8.448;2023-11-18T02:38:06;101677.91;;;4.93;100.00
37238;BME280;23129;49.662;8.448;2023-11-18T02:40:40;101684.84;;;4.91;100.00
37238;BME280;23129;49.662;8.448;2023-11-18T02:43:12;101671.78;;;4.88;100.00
37238;BME280;23129;49.662;8.448;2023-11-18T02:45:41;101679.59;;;4.88;100.00
37238;BME280;23129;49.662;8.448;2023-11-18T02:48:11;101684.78;;;4.88;100.00
37238;BME280;23129;49.662;8.448;2023-11-18T02:50:39;101672.63;;;4.87;100.00
37238;BME280;23129;49.662;8.448;2023-11-18T02:53:10;101664.78;;;4.84;100.00
37238;BME280;23129;49.662;8.448;2023-11-18T02:55:38;101672.53;;;4.81;100.00
37238;BME280;23129;49.662;8.448;2023-11-18T02:58:08;101666.47;;;4.79;100.00
37238;BME280;23129;49.662;8.448;2023-11-18T03:00:38;101669.03;;;4.77;100.00
37238;BME280;23129;49.662;8.448;2023-11-18T03:03:07;101662.91;;;4.75;100.00
37238;BME280;23129;49.662;8.448;2023-11-18T03:05:36;101662.03;;;4.73;100.00
37238;BME280;23129;49.662;8.448;2023-11-18T03:08:05;101665.50;;;4.74;100.00
37238;BME280;23129;49.662;8.448;2023-11-18T03:10:35;101667.19;;;4.70;100.00
37238;BME280;23129;49.662;8.448;2023-11-18T03:13:04;101656.75;;;4.67;100.00
37238;BME280;23129;49.662;8.448;2023-11-18T03:15:34;101653.22;;;4.64;100.00
37238;BME280;23129;49.662;8.448;2023-11-18T03:18:05;101654.88;;;4.58;100.00
37238;BME280;23129;49.662;8.448;2023-11-18T03:20:34;101655.66;;;4.54;100.00
37238;BME280;23129;49.662;8.448;2023-11-18T03:23:03;101659.09;;;4.52;100.00
37238;BME280;23129;49.662;8.448;2023-11-18T03:25:35;101659.91;;;4.49;100.00
37238;BME280;23129;49.662;8.448;2023-11-18T03:28:05;101659.09;;;4.52;100.00
37238;BME280;23129;49.662;8.448;2023-11-18T03:30:35;101657.38;;;4.52;100.00
37238;BME280;23129;49.662;8.448;2023-11-18T03:33:06;101656.56;;;4.56;100.00
37238;BME280;23129;49.662;8.448;2023-11-18T03:35:38;101649.66;;;4.58;100.00
37238;BME280;23129;49.662;8.448;2023-11-18T03:38:07;101645.34;;;4.61;100.00
37238;BME280;23129;49.662;8.448;2023-11-18T03:40:36;101653.22;;;4.64;100.00
37238;BME280;23129;49.662;8.448;2023-11-18T03:43:04;101652.38;;;4.66;100.00
37238;BME280;23129;49.662;8.448;2023-11-18T03:45:33;101655.91;;;4.70;100.00
37238;BME280;23129;49.662;8.448;2023-11-18T03:48:02;101660.31;;;4.74;100.00
37238;BME280;23129;49.662;8.448;2023-11-18T03:50:32;101656.00;;;4.76;100.00
37238;BME280;23129;49.662;8.448;2023-11-18T03:53:01;101669.06;;;4.79;100.00
37238;BME280;23129;49.662;8.448;2023-11-18T03:55:30;101672.53;;;4.81;100.00
37238;BME280;23129;49.662;8.448;2023-11-18T03:57:59;101663.91;;;4.84;100.00
37238;BME280;23129;49.662;8.448;2023-11-18T04:00:28;101659.63;;;4.86;100.00
37238;BME280;23129;49.662;8.448;2023-11-18T04:02:58;101669.19;;;4.88;100.00
37238;BME280;23129;49.662;8.448;2023-11-18T04:05:27;101674.44;;;4.91;100.00
37238;BME280;23129;49.662;8.448;2023-11-18T04:07:58;101662.31;;;4.93;100.00
37238;BME280;23129;49.662;8.448;2023-11-18T04:10:27;101654.56;;;4.96;100.00
37238;BME280;23129;49.662;8.448;2023-11-18T04:12:56;101658.97;;;5.00;100.00
37238;BME280;23129;49.662;8.448;2023-11-18T04:15:24;101659.88;;;5.04;100.00
37238;BME280;23129;49.662;8.448;2023-11-18T04:17:54;101647.78;;;5.06;100.00
37238;BME280;23129;49.662;8.448;2023-11-18T04:20:23;101646.97;;;5.09;100.00
37238;BME280;23129;49.662;8.448;2023-11-18T04:22:51;101638.31;;;5.10;100.00
37238;BME280;23129;49.662;8.448;2023-11-18T04:25:21;101636.59;;;5.12;100.00
37238;BME280;23129;49.662;8.448;2023-11-18T04:27:50;101627.06;;;5.12;100.00
37238;BME280;23129;49.662;8.448;2023-11-18T04:30:19;101626.19;;;5.12;100.00
37238;BME280;23129;49.662;8.448;2023-11-18T04:32:48;101634.84;;;5.11;100.00
37238;BME280;23129;49.662;8.448;2023-11-18T04:35:19;101632.19;;;5.06;100.00
37238;BME280;23129;49.662;8.448;2023-11-18T04:37:49;101640.81;;;5.05;100.00
37238;BME280;23129;49.662;8.448;2023-11-18T04:40:18;101638.22;;;5.03;100.00
37238;BME280;23129;49.662;8.448;2023-11-18T04:42:48;101642.50;;;5.00;100.00
37238;BME280;23129;49.662;8.448;2023-11-18T04:45:17;101640.72;;;4.97;100.00
37238;BME280;23129;49.662;8.448;2023-11-18T04:47:45;101653.72;;;4.97;100.00
37238;BME280;23129;49.662;8.448;2023-11-18T04:50:14;101654.59;;;4.98;100.00
37238;BME280;23129;49.662;8.448;2023-11-18T04:52:43;101646.84;;;5.01;100.00
37238;BME280;23129;49.662;8.448;2023-11-18T04:55:12;101645.13;;;5.01;100.00
37238;BME280;23129;49.662;8.448;2023-11-18T04:57:41;101645.13;;;5.01;100.00
37238;BME280;23129;49.662;8.448;2023-11-18T05:00:13;101641.66;;;5.02;100.00
37238;BME280;23129;49.662;8.448;2023-11-18T05:02:45;101653.78;;;5.02;100.00
37238;BME280;23129;49.662;8.448;2023-11-18T05:05:16;101661.59;;;5.02;100.00
37238;BME280;23129;49.662;8.448;2023-11-18T05:07:45;101656.41;;;5.03;100.00
37238;BME280;23129;49.662;8.448;2023-11-18T05:10:13;101661.63;;;5.05;100.00
37238;BME280;23129;49.662;8.448;2023-11-18T05:12:42;101646.94;;;5.06;100.00
37238;BME280;23129;49.662;8.448;2023-11-18T05:15:13;101646.94;;;5.06;100.00
37238;BME280;23129;49.662;8.448;2023-11-18T05:17:42;101657.31;;;5.06;100.00
37238;BME280;23129;49.662;8.448;2023-11-18T05:20:10;101649.53;;;5.07;100.00
37238;BME280;23129;49.662;8.448;2023-11-18T05:22:40;101645.19;;;5.08;100.00
37238;BME280;23129;49.662;8.448;2023-11-18T05:25:09;101642.63;;;5.09;100.00
37238;BME280;23129;49.662;8.448;2023-11-18T05:27:38;101653.06;;;5.12;100.00
37238;BME280;23129;49.662;8.448;2023-11-18T05:30:08;101653.13;;;5.15;100.00
37238;BME280;23129;49.662;8.448;2023-11-18T05:32:38;101642.75;;;5.20;100.00
37238;BME280;23129;49.662;8.448;2023-11-18T05:35:08;101640.19;;;5.23;100.00
37238;BME280;23129;49.662;8.448;2023-11-18T05:37:39;101636.81;;;5.27;100.00
37238;BME280;23129;49.662;8.448;2023-11-18T05:40:09;101623.84;;;5.30;100.00
37238;BME280;23129;49.662;8.448;2023-11-18T05:42:42;101631.69;;;5.33;100.00
37238;BME280;23129;49.662;8.448;2023-11-18T05:45:13;101629.94;;;5.35;100.00
37238;BME280;23129;49.662;8.448;2023-11-18T05:47:57;101621.34;;;5.39;100.00
37238;BME280;23129;49.662;8.448;2023-11-18T05:50:26;101629.16;;;5.41;100.00
37238;BME280;23129;49.662;8.448;2023-11-18T05:52:54;101624.91;;;5.44;100.00
37238;BME280;23129;49.662;8.448;2023-11-18T05:55:23;101623.16;;;5.46;100.00
37238;BME280;23129;49.662;8.448;2023-11-18T05:57:52;101618.81;;;5.47;100.00
37238;BME280;23129;49.662;8.448;2023-11-18T06:00:20;101611.91;;;5.49;100.00
37238;BME280;23129;49.662;8.448;2023-11-18T06:03:03;101614.56;;;5.51;100.00
37238;BME280;23129;49.662;8.448;2023-11-18T06:05:32;101609.34;;;5.51;100.00
37238;BME280;23129;49.662;8.448;2023-11-18T06:08:03;101612.81;;;5.53;100.00
37238;BME280;23129;49.662;8.448;2023-11-18T06:10:32;101616.31;;;5.55;100.00
37238;BME280;23129;49.662;8.448;2023-11-18T06:13:01;101617.22;;;5.57;100.00
37238;BME280;23129;49.662;8.448;2023-11-18T06:15:31;101614.63;;;5.58;100.00
37238;BME280;23129;49.662;8.448;2023-11-18T06:18:05;101619.88;;;5.60;100.00
37238;BME280;23129;49.662;8.448;2023-11-18T06:20:34;101620.75;;;5.62;100.00
37238;BME280;23129;49.662;8.448;2023-11-18T06:23:03;101631.19;;;5.65;100.00
37238;BME280;23129;49.662;8.448;2023-11-18T06:25:32;101626.88;;;5.67;100.00
37238;BME280;23129;49.662;8.448;2023-11-18T06:28:02;101627.75;;;5.67;100.00
37238;BME280;23129;49.662;8.448;2023-11-18T06:30:31;101627.78;;;5.70;100.00
37238;BME280;23129;49.662;8.448;2023-11-18T06:32:58;101619.13;;;5.73;100.00
37238;BME280;23129;49.662;8.448;2023-11-18T06:35:28;101619.16;;;5.75;100.00
37238;BME280;23129;49.662;8.448;2023-11-18T06:37:57;101606.16;;;5.76;100.00
37238;BME280;23129;49.662;8.448;2023-11-18T06:40:26;101618.31;;;5.77;100.00
37238;BME280;23129;49.662;8.448;2023-11-18T06:42:54;101606.16;;;5.76;100.00
37238;BME280;23129;49.662;8.448;2023-11-18T06:45:29;101610.50;;;5.76;100.00
37238;BME280;23129;49.662;8.448;2023-11-18T06:47:59;101613.97;;;5.76;100.00
37238;BME280;23129;49.662;8.448;2023-11-18T06:50:29;101620.03;;;5.75;100.00
37238;BME280;23129;49.662;8.448;2023-11-18T06:52:59;101633.91;;;5.77;100.00
37238;BME280;23129;49.662;8.448;2023-11-18T06:55:28;101640.03;;;5.78;100.00
37238;BME280;23129;49.662;8.448;2023-11-18T06:57:57;101637.44;;;5.79;100.00
37238;BME280;23129;49.662;8.448;2023-11-18T07:00:25;101638.31;;;5.81;100.00
37238;BME280;23129;49.662;8.448;2023-11-18T07:02:55;101631.41;;;5.85;100.00
37238;BME280;23129;49.662;8.448;2023-11-18T07:05:25;101634.06;;;5.88;100.00
37238;BME280;23129;49.662;8.448;2023-11-18T07:07:55;101644.53;;;5.92;100.00
37238;BME280;23129;49.662;8.448;2023-11-18T07:10:23;101648.03;;;5.94;100.00
37238;BME280;23129;49.662;8.448;2023-11-18T07:12:55;101636.78;;;5.96;100.00
37238;BME280;23129;49.662;8.448;2023-11-18T07:15:23;101640.25;;;5.98;100.00
37238;BME280;23129;49.662;8.448;2023-11-18T07:17:53;101633.34;;;6.00;100.00
37238;BME280;23129;49.662;8.448;2023-11-18T07:20:23;101632.47;;;6.01;100.00
37238;BME280;23129;49.662;8.448;2023-11-18T07:22:51;101621.22;;;6.02;100.00
37238;BME280;23129;49.662;8.448;2023-11-18T07:25:22;101632.50;;;6.04;100.00
37238;BME280;23129;49.662;8.448;2023-11-18T07:27:51;101627.31;;;6.05;100.00
37238;BME280;23129;49.662;8.448;2023-11-18T07:30:20;101632.53;;;6.07;100.00
37238;BME280;23129;49.662;8.448;2023-11-18T07:32:50;101629.09;;;6.08;100.00
37238;BME280;23129;49.662;8.448;2023-11-18T07:35:18;101645.63;;;6.11;100.00
37238;BME280;23129;49.662;8.448;2023-11-18T07:37:47;101646.47;;;6.12;100.00
37238;BME280;23129;49.662;8.448;2023-11-18T07:40:16;101646.47;;;6.12;100.00
37238;BME280;23129;49.662;8.448;2023-11-18T07:42:53;101653.44;;;6.13;100.00
37238;BME280;23129;49.662;8.448;2023-11-18T07:45:23;101653.47;;;6.16;100.00
37238;BME280;23129;49.662;8.448;2023-11-18T07:47:51;101638.72;;;6.16;100.00
37238;BME280;23129;49.662;8.448;2023-11-18T07:50:21;101638.72;;;6.18;100.00
37238;BME280;23129;49.662;8.448;2023-11-18T07:52:50;101646.56;;;6.21;100.00
37238;BME280;23129;49.662;8.448;2023-11-18T07:55:19;101649.19;;;6.23;100.00
37238;BME280;23129;49.662;8.448;2023-11-18T07:57:50;101653.56;;;6.25;100.00
37238;BME280;23129;49.662;8.448;2023-11-18T08:00:21;101649.25;;;6.29;100.00
37238;BME280;23129;49.662;8.448;2023-11-18T08:02:51;101644.91;;;6.31;100.00
37238;BME280;23129;49.662;8.448;2023-11-18T08:05:21;101636.25;;;6.33;100.00
37238;BME280;23129;49.662;8.448;2023-11-18T08:07:50;101646.72;;;6.35;100.00
37238;BME280;23129;49.662;8.448;2023-11-18T08:10:20;101649.34;;;6.38;100.00
37238;BME280;23129;49.662;8.448;2023-11-18T08:12:49;101655.41;;;6.40;100.00
37238;BME280;23129;49.662;8.448;2023-11-18T08:15:20;101651.13;;;6.45;100.00
37238;BME280;23129;49.662;8.448;2023-11-18T08:17:49;101638.13;;;6.47;100.00
37238;BME280;23129;49.662;8.448;2023-11-18T08:20:19;101636.38;;;6.49;100.00
37238;BME280;23129;49.662;8.448;2023-11-18T08:22:52;101636.41;;;6.52;100.00
37238;BME280;23129;49.662;8.448;2023-11-18T08:25:22;101646.84;;;6.55;100.00
37238;BME280;23129;49.662;8.448;2023-11-18T08:27:51;101659.06;;;6.59;100.00
37238;BME280;23129;49.662;8.448;2023-11-18T08:30:21;101652.13;;;6.61;100.00
37238;BME280;23129;49.662;8.448;2023-11-18T08:32:51;101641.72;;;6.64;100.00
37238;BME280;23129;49.662;8.448;2023-11-18T08:35:19;101636.56;;;6.67;100.00
37238;BME280;23129;49.662;8.448;2023-11-18T08:37:49;101635.69;;;6.70;100.00
37238;BME280;23129;49.662;8.448;2023-11-18T08:40:18;101640.03;;;6.72;100.00
37238;BME280;23129;49.662;8.448;2023-11-18T08:42:50;101633.13;;;6.74;100.00
37238;BME280;23129;49.662;8.448;2023-11-18T08:45:23;101630.50;;;6.76;100.00
37238;BME280;23129;49.662;8.448;2023-11-18T08:47:55;101619.22;;;6.78;100.00
37238;BME280;23129;49.662;8.448;2023-11-18T08:50:26;101629.66;;;6.81;100.00
37238;BME280;23129;49.662;8.448;2023-11-18T08:52:56;101632.31;;;6.84;100.00
37238;BME280;23129;49.662;8.448;2023-11-18T08:55:28;101624.50;;;6.88;100.00
37238;BME280;23129;49.662;8.448;2023-11-18T08:58:11;101621.06;;;6.92;100.00
37238;BME280;23129;49.662;8.448;2023-11-18T09:00:50;101624.56;;;6.97;100.00
37238;BME280;23129;49.662;8.448;2023-11-18T09:03:24;101621.97;;;7.03;100.00
37238;BME280;23129;49.662;8.448;2023-11-18T09:05:57;101624.66;;;7.09;100.00
37238;BME280;23129;49.662;8.448;2023-11-18T09:08:28;101620.31;;;7.14;100.00
37238;BME280;23129;49.662;8.448;2023-11-18T09:11:00;101619.47;;;7.18;100.00
37238;BME280;23129;49.662;8.448;2023-11-18T09:13:29;101624.72;;;7.21;100.00
37238;BME280;23129;49.662;8.448;2023-11-18T09:16:00;101626.47;;;7.25;100.00
37238;BME280;23129;49.662;8.448;2023-11-18T09:18:31;101621.25;;;7.28;100.00
37238;BME280;23129;49.662;8.448;2023-11-18T09:21:06;101621.28;;;7.31;100.00
37238;BME280;23129;49.662;8.448;2023-11-18T09:23:38;101618.69;;;7.41;100.00
37238;BME280;23129;49.662;8.448;2023-11-18T09:26:08;101621.34;;;7.50;100.00
37238;BME280;23129;49.662;8.448;2023-11-18T09:28:38;101620.50;;;7.59;100.00
37238;BME280;23129;49.662;8.448;2023-11-18T09:31:09;101626.63;;;7.68;100.00
37238;BME280;23129;49.662;8.448;2023-11-18T09:33:41;101625.78;;;7.75;100.00
37238;BME280;23129;49.662;8.448;2023-11-18T09:36:14;101618.81;;;7.77;100.00
37238;BME280;23129;49.662;8.448;2023-11-18T09:38:45;101615.34;;;7.83;100.00
37238;BME280;23129;49.662;8.448;2023-11-18T09:41:16;101615.38;;;7.91;100.00
37238;BME280;23129;49.662;8.448;2023-11-18T09:43:46;101621.50;;;7.96;100.00
37238;BME280;23129;49.662;8.448;2023-11-18T09:46:23;101620.59;;;7.95;100.00
37238;BME280;23129;49.662;8.448;2023-11-18T09:49:04;101622.34;;;7.95;100.00
37238;BME280;23129;49.662;8.448;2023-11-18T09:51:43;101627.59;;;7.96;100.00
37238;BME280;23129;49.662;8.448;2023-11-18T09:54:20;101614.50;;;7.95;100.00
37238;BME280;23129;49.662;8.448;2023-11-18T09:57:00;101612.78;;;7.97;100.00
37238;BME280;23129;49.662;8.448;2023-11-18T09:59:44;101607.56;;;8.00;100.00
37238;BME280;23129;49.662;8.448;2023-11-18T10:02:25;101616.28;;;8.02;100.00
37238;BME280;23129;49.662;8.448;2023-11-18T10:04:54;101618.00;;;8.03;100.00
37238;BME280;23129;49.662;8.448;2023-11-18T10:07:26;101616.28;;;8.05;100.00
37238;BME280;23129;49.662;8.448;2023-11-18T10:09:55;101611.91;;;8.07;100.00
37238;BME280;23129;49.662;8.448;2023-11-18T10:12:25;101607.56;;;8.09;100.00
37238;BME280;23129;49.662;8.448;2023-11-18T10:14:57;101601.47;;;8.10;100.00
37238;BME280;23129;49.662;8.448;2023-11-18T10:17:28;101605.84;;;8.11;100.00
37238;BME280;23129;49.662;8.448;2023-11-18T10:19:57;101599.75;;;8.14;100.00
37238;BME280;23129;49.662;8.448;2023-11-18T10:22:28;101610.19;;;8.17;100.00
37238;BME280;23129;49.662;8.448;2023-11-18T10:24:59;101609.31;;;8.19;100.00
37238;BME280;23129;49.662;8.448;2023-11-18T10:27:29;101618.03;;;8.21;100.00
37238;BME280;23129;49.662;8.448;2023-11-18T10:30:01;101607.56;;;8.21;100.00
37238;BME280;23129;49.662;8.448;2023-11-18T10:32:32;101608.44;;;8.22;100.00
37238;BME280;23129;49.662;8.448;2023-11-18T10:35:04;101605.81;;;8.22;100.00
37238;BME280;23129;49.662;8.448;2023-11-18T10:37:36;101601.50;;;8.26;100.00
37238;BME280;23129;49.662;8.448;2023-11-18T10:40:12;101605.84;;;8.30;100.00
37238;BME280;23129;49.662;8.448;2023-11-18T10:42:43;101600.59;;;8.33;100.00
37238;BME280;23129;49.662;8.448;2023-11-18T10:45:24;101596.25;;;8.35;100.00
37238;BME280;23129;49.662;8.448;2023-11-18T10:47:56;101596.25;;;8.38;100.00
37238;BME280;23129;49.662;8.448;2023-11-18T10:50:25;101598.91;;;8.41;100.00
37238;BME280;23129;49.662;8.448;2023-11-18T10:53:00;101588.44;;;8.41;100.00
37238;BME280;23129;49.662;8.448;2023-11-18T10:55:36;101587.56;;;8.39;100.00
37238;BME280;23129;49.662;8.448;2023-11-18T10:58:05;101588.44;;;8.41;100.00
37238;BME280;23129;49.662;8.448;2023-11-18T11:00:50;101580.59;;;8.41;100.00
37238;BME280;23129;49.662;8.448;2023-11-18T11:03:22;101575.38;;;8.44;100.00
37238;BME280;23129;49.662;8.448;2023-11-18T11:05:52;101565.75;;;8.49;100.00
37238;BME280;23129;49.662;8.448;2023-11-18T11:08:22;101554.44;;;8.50;100.00
37238;BME280;23129;49.662;8.448;2023-11-18T11:11:06;101552.69;;;8.51;100.00
37238;BME280;23129;49.662;8.448;2023-11-18T11:13:37;101546.59;;;8.53;100.00
37238;BME280;23129;49.662;8.448;2023-11-18T11:16:10;101563.16;;;8.57;100.00
37238;BME280;23129;49.662;8.448;2023-11-18T11:18:47;101552.69;;;8.57;100.00
37238;BME280;23129;49.662;8.448;2023-11-18T11:21:21;101530.91;;;8.59;100.00
37238;BME280;23129;49.662;8.448;2023-11-18T11:24:01;101532.63;;;8.60;100.00
37238;BME280;23129;49.662;8.448;2023-11-18T11:26:48;101527.41;;;8.60;100.00
37238;BME280;23129;49.662;8.448;2023-11-18T11:29:27;101523.91;;;8.61;100.00
37238;BME280;23129;49.662;8.448;2023-11-18T11:32:11;101510.84;;;8.60;100.00
37238;BME280;23129;49.662;8.448;2023-11-18T11:34:48;101499.53;;;8.56;100.00
37238;BME280;23129;49.662;8.448;2023-11-18T11:37:23;101486.44;;;8.55;100.00
37238;BME280;23129;49.662;8.448;2023-11-18T11:39:54;101496.03;;;8.51;100.00
37238;BME280;23129;49.662;8.448;2023-11-18T11:42:27;101495.16;;;8.49;100.00
37238;BME280;23129;49.662;8.448;2023-11-18T11:44:57;101480.38;;;8.47;100.00
37238;BME280;23129;49.662;8.448;2023-11-18T11:47:27;101483.84;;;8.45;100.00
37238;BME280;23129;49.662;8.448;2023-11-18T11:50:06;101480.38;;;8.45;100.00
37238;BME280;23129;49.662;8.448;2023-11-18T11:52:44;101476.88;;;8.43;100.00
37238;BME280;23129;49.662;8.448;2023-11-18T11:55:23;101469.91;;;8.42;100.00
37238;BME280;23129;49.662;8.448;2023-11-18T11:57:56;101461.19;;;8.43;100.00
37238;BME280;23129;49.662;8.448;2023-11-18T12:00:27;101455.09;;;8.42;100.00
37238;BME280;23129;49.662;8.448;2023-11-18T12:03:02;101461.22;;;8.41;100.00
37238;BME280;23129;49.662;8.448;2023-11-18T12:05:34;101445.50;;;8.40;100.00
37238;BME280;23129;49.662;8.448;2023-11-18T12:08:07;101449.00;;;8.42;100.00
37238;BME280;23129;49.662;8.448;2023-11-18T12:10:40;101435.06;;;8.41;100.00
37238;BME280;23129;49.662;8.448;2023-11-18T12:13:20;101435.03;;;8.43;100.00
37238;BME280;23129;49.662;8.448;2023-11-18T12:15:49;101441.13;;;8.43;100.00
37238;BME280;23129;49.662;8.448;2023-11-18T12:18:22;101434.19;;;8.44;100.00
37238;BME280;23129;49.662;8.448;2023-11-18T12:20:53;101441.16;;;8.45;100.00
37238;BME280;23129;49.662;8.448;2023-11-18T12:23:23;101439.41;;;8.44;100.00
37238;BME280;23129;49.662;8.448;2023-11-18T12:25:54;101429.81;;;8.43;100.00
37238;BME280;23129;49.662;8.448;2023-11-18T12:28:29;101429.81;;;8.43;100.00
37238;BME280;23129;49.662;8.448;2023-11-18T12:31:04;101428.09;;;8.42;100.00
37238;BME280;23129;49.662;8.448;2023-11-18T12:34:03;101422.88;;;8.39;100.00
37238;BME280;23129;49.662;8.448;2023-11-18T12:37:11;101422.84;;;8.36;100.00
37238;BME280;23129;49.662;8.448;2023-11-18T12:40:16;101407.16;;;8.36;100.00
37238;BME280;23129;49.662;8.448;2023-11-18T12:43:02;101418.50;;;8.36;100.00
37238;BME280;23129;49.662;8.448;2023-11-18T12:45:44;101413.28;;;8.38;100.00
37238;BME280;23129;49.662;8.448;2023-11-18T12:48:21;101408.91;;;8.40;100.00
37238;BME280;23129;49.662;8.448;2023-11-18T12:50:55;101398.47;;;8.40;100.00
37238;BME280;23129;49.662;8.448;2023-11-18T12:53:26;101385.38;;;8.40;100.00
37238;BME280;23129;49.662;8.448;2023-11-18T12:55:56;101379.28;;;8.38;100.00
37238;BME280;23129;49.662;8.448;2023-11-18T12:58:26;101385.38;;;8.35;100.00
37238;BME280;23129;49.662;8.448;2023-11-18T13:00:55;101388.84;;;8.34;100.00
37238;BME280;23129;49.662;8.448;2023-11-18T13:03:27;101381.03;;;8.33;100.00
37238;BME280;23129;49.662;8.448;2023-11-18T13:05:56;101369.72;;;8.31;100.00
37238;BME280;23129;49.662;8.448;2023-11-18T13:08:26;101366.22;;;8.30;100.00
37238;BME280;23129;49.662;8.448;2023-11-18T13:10:55;101360.16;;;8.27;100.00